PWSweather.com
Personal Weather Stations
Station Observations
BZA01
Southern Palatinate, Bad BergzabernDE 76887

Southern PalatinateBad BergzabernDE 76887

Lat: 49.096, Lon: 8

Elevation: 640

Station Type: Davis VP2+

Latest ConditionsUpdated 4:47:28 PM GMT+01:01 Sunday, Apr 23, 2017
Currently Today's Max Today's Min Today's Average
Temperature 56.1°F13.4°C 56.7°F13.7°C 34.3°F1.3°C 45.4°F7.4°C
Dew Point 30.9°F-0.6°C 35.1°F1.7°C 28.8°F-1.8°C 31.7°F-0.2°C
Winds 4.9 mph NE7.9 kmh NE 6.0 mph NE9.7 kmh NE - 2.1 mph 3.4 kmh
Wind Gusts 4.9 mph7.9 kmh 8.9 mph14.3 kmh - -
Humidity 38% 84% 38% 61%
Pressure 30.22 in1023.4 mb 30.29 in1025.7 mb 30.22 in1023.4 mb -
Hour Temp Dew Point Humidity Winds Wind Gusts Pressure Precip Precip Rate Daily Precip Total
04:47 PM 56.1°F13.4°C 30.9°F-0.6°C 38% 4.9 mph NE7.9 kmh NE 4.9 mph7.9 kmh 30.22 in1023.4 mb - 0.00 in0.0 mm 0.00 in0.0 mm
04:42 PM 56.1°F13.4°C 30.9°F-0.6°C 38% 4.9 mph NNE7.9 kmh NNE 2.9 mph4.7 kmh 30.22 in1023.4 mb - 0.00 in0.0 mm 0.00 in0.0 mm
04:37 PM 56.1°F13.4°C 30.9°F-0.6°C 38% 4.0 mph NE6.4 kmh NE 6.0 mph9.7 kmh 30.22 in1023.4 mb - 0.00 in0.0 mm 0.00 in0.0 mm
04:32 PM 55.9°F13.3°C 32.0°F0.0°C 40% 4.0 mph NE6.4 kmh NE 4.9 mph7.9 kmh 30.22 in1023.4 mb - 0.00 in0.0 mm 0.00 in0.0 mm
04:27 PM 55.8°F13.2°C 30.6°F-0.8°C 38% 4.0 mph E6.4 kmh E 6.9 mph11.1 kmh 30.22 in1023.4 mb - 0.00 in0.0 mm 0.00 in0.0 mm
04:22 PM 55.6°F13.1°C 30.4°F-0.9°C 38% 2.9 mph NE4.7 kmh NE 8.1 mph13.0 kmh 30.22 in1023.4 mb - 0.00 in0.0 mm 0.00 in0.0 mm
04:17 PM 55.6°F13.1°C 31.1°F-0.5°C 39% 2.9 mph ESE4.7 kmh ESE 2.0 mph3.2 kmh 30.22 in1023.4 mb - 0.00 in0.0 mm 0.00 in0.0 mm
04:12 PM 55.2°F12.9°C 31.3°F-0.4°C 40% 4.0 mph SE6.4 kmh SE -- 30.22 in1023.4 mb - 0.00 in0.0 mm 0.00 in0.0 mm
04:07 PM 55.0°F12.8°C 30.6°F-0.8°C 39% 4.0 mph E6.4 kmh E 2.9 mph4.7 kmh 30.22 in1023.4 mb - 0.00 in0.0 mm 0.00 in0.0 mm
04:02 PM 54.5°F12.5°C 30.0°F-1.1°C 39% 2.9 mph E4.7 kmh E 0.9 mph1.4 kmh 30.22 in1023.4 mb - 0.00 in0.0 mm 0.00 in0.0 mm
03:57 PM 54.1°F12.3°C 30.9°F-0.6°C 41% 4.0 mph ENE6.4 kmh ENE 2.0 mph3.2 kmh 30.22 in1023.4 mb - 0.00 in0.0 mm 0.00 in0.0 mm
03:52 PM 54.1°F12.3°C 30.9°F-0.6°C 41% 4.9 mph NE7.9 kmh NE 4.0 mph6.4 kmh 30.23 in1023.7 mb - 0.00 in0.0 mm 0.00 in0.0 mm
03:47 PM 54.7°F12.6°C 30.9°F-0.6°C 40% 4.0 mph E6.4 kmh E 4.0 mph6.4 kmh 30.22 in1023.4 mb - 0.00 in0.0 mm 0.00 in0.0 mm
03:42 PM 54.9°F12.7°C 30.4°F-0.9°C 39% 2.9 mph ESE4.7 kmh ESE 2.0 mph3.2 kmh 30.22 in1023.4 mb - 0.00 in0.0 mm 0.00 in0.0 mm
03:37 PM 54.9°F12.7°C 30.4°F-0.9°C 39% 4.0 mph NNE6.4 kmh NNE 6.9 mph11.1 kmh 30.22 in1023.4 mb - 0.00 in0.0 mm 0.00 in0.0 mm
03:32 PM 55.0°F12.8°C 30.6°F-0.8°C 39% 4.0 mph NE6.4 kmh NE -- 30.23 in1023.7 mb - 0.00 in0.0 mm 0.00 in0.0 mm
03:27 PM 55.6°F13.1°C 31.1°F-0.5°C 39% 4.0 mph E6.4 kmh E 8.1 mph13.0 kmh 30.23 in1023.7 mb - 0.00 in0.0 mm 0.00 in0.0 mm
03:22 PM 55.8°F13.2°C 31.8°F-0.1°C 40% 4.0 mph ESE6.4 kmh ESE 4.0 mph6.4 kmh 30.23 in1023.7 mb - 0.00 in0.0 mm 0.00 in0.0 mm
03:17 PM 56.1°F13.4°C 30.9°F-0.6°C 38% 4.9 mph NE7.9 kmh NE 6.0 mph9.7 kmh 30.23 in1023.7 mb - 0.00 in0.0 mm 0.00 in0.0 mm
03:12 PM 56.7°F13.7°C 31.3°F-0.4°C 38% 6.0 mph NNE9.7 kmh NNE 4.0 mph6.4 kmh 30.23 in1023.7 mb - 0.00 in0.0 mm 0.00 in0.0 mm
03:07 PM 56.3°F13.5°C 31.6°F-0.2°C 39% 4.9 mph NNE7.9 kmh NNE 4.0 mph6.4 kmh 30.23 in1023.7 mb - 0.00 in0.0 mm 0.00 in0.0 mm
03:02 PM 56.1°F13.4°C 31.5°F-0.3°C 39% 4.0 mph NNE6.4 kmh NNE 6.9 mph11.1 kmh 30.23 in1023.7 mb - 0.00 in0.0 mm 0.00 in0.0 mm
02:57 PM 56.1°F13.4°C 30.9°F-0.6°C 38% 4.9 mph ENE7.9 kmh ENE 4.9 mph7.9 kmh 30.23 in1023.7 mb - 0.00 in0.0 mm 0.00 in0.0 mm
02:52 PM 56.5°F13.6°C 31.1°F-0.5°C 38% 6.0 mph ESE9.7 kmh ESE 4.0 mph6.4 kmh 30.23 in1023.7 mb - 0.00 in0.0 mm 0.00 in0.0 mm
02:47 PM 56.3°F13.5°C 31.1°F-0.5°C 38% 6.0 mph NE9.7 kmh NE 4.9 mph7.9 kmh 30.23 in1023.7 mb - 0.00 in0.0 mm 0.00 in0.0 mm
02:42 PM 55.9°F13.3°C 31.3°F-0.4°C 39% 4.0 mph NNE6.4 kmh NNE 8.9 mph14.3 kmh 30.23 in1023.7 mb - 0.00 in0.0 mm 0.00 in0.0 mm
02:37 PM 55.6°F13.1°C 32.2°F0.1°C 41% 4.0 mph E6.4 kmh E 4.0 mph6.4 kmh 30.24 in1024.0 mb - 0.00 in0.0 mm 0.00 in0.0 mm
02:32 PM 54.9°F12.7°C 31.6°F-0.2°C 41% 4.9 mph NE7.9 kmh NE 2.9 mph4.7 kmh 30.24 in1024.0 mb - 0.00 in0.0 mm 0.00 in0.0 mm
02:27 PM 55.0°F12.8°C 29.8°F-1.2°C 38% 4.9 mph E7.9 kmh E 2.0 mph3.2 kmh 30.24 in1024.0 mb - 0.00 in0.0 mm 0.00 in0.0 mm
02:22 PM 55.8°F13.2°C 31.8°F-0.1°C 40% 4.0 mph ENE6.4 kmh ENE 2.0 mph3.2 kmh 30.23 in1023.7 mb - 0.00 in0.0 mm 0.00 in0.0 mm
02:17 PM 55.6°F13.1°C 31.6°F-0.2°C 40% 4.0 mph S6.4 kmh S 2.9 mph4.7 kmh 30.24 in1024.0 mb - 0.00 in0.0 mm 0.00 in0.0 mm
02:12 PM 55.2°F12.9°C 31.3°F-0.4°C 40% 2.0 mph NE3.2 kmh NE 4.9 mph7.9 kmh 30.24 in1024.0 mb - 0.00 in0.0 mm 0.00 in0.0 mm
02:07 PM 55.0°F12.8°C 29.8°F-1.2°C 38% 2.0 mph ENE3.2 kmh ENE 2.9 mph4.7 kmh 30.24 in1024.0 mb - 0.00 in0.0 mm 0.00 in0.0 mm
02:02 PM 55.4°F13.0°C 30.9°F-0.6°C 39% 2.9 mph SSE4.7 kmh SSE 0.9 mph1.4 kmh 30.24 in1024.0 mb - 0.00 in0.0 mm 0.00 in0.0 mm
01:57 PM 55.2°F12.9°C 33.1°F0.6°C 43% 2.9 mph N4.7 kmh N -- 30.24 in1024.0 mb - 0.00 in0.0 mm 0.00 in0.0 mm
01:52 PM 54.3°F12.4°C 31.6°F-0.2°C 42% 2.0 mph ENE3.2 kmh ENE 0.9 mph1.4 kmh 30.25 in1024.4 mb - 0.00 in0.0 mm 0.00 in0.0 mm
01:47 PM 54.0°F12.2°C 30.2°F-1.0°C 40% 2.9 mph ESE4.7 kmh ESE 0.9 mph1.4 kmh 30.25 in1024.4 mb - 0.00 in0.0 mm 0.00 in0.0 mm
01:42 PM 53.4°F11.9°C 29.7°F-1.3°C 40% 4.0 mph ENE6.4 kmh ENE -- 30.25 in1024.4 mb - 0.00 in0.0 mm 0.00 in0.0 mm
01:37 PM 53.6°F12.0°C 29.8°F-1.2°C 40% 2.9 mph NE4.7 kmh NE 4.0 mph6.4 kmh 30.25 in1024.4 mb - 0.00 in0.0 mm 0.00 in0.0 mm
01:32 PM 53.8°F12.1°C 30.6°F-0.8°C 41% 2.9 mph ENE4.7 kmh ENE 2.9 mph4.7 kmh 30.25 in1024.4 mb - 0.00 in0.0 mm 0.00 in0.0 mm
01:27 PM 53.8°F12.1°C 30.0°F-1.1°C 40% 4.0 mph SSW6.4 kmh SSW 2.9 mph4.7 kmh 30.25 in1024.4 mb - 0.00 in0.0 mm 0.00 in0.0 mm
01:22 PM 53.6°F12.0°C 29.8°F-1.2°C 40% 4.0 mph ESE6.4 kmh ESE 4.0 mph6.4 kmh 30.25 in1024.4 mb - 0.00 in0.0 mm 0.00 in0.0 mm
01:17 PM 53.6°F12.0°C 31.1°F-0.5°C 42% 2.0 mph NE3.2 kmh NE 4.9 mph7.9 kmh 30.25 in1024.4 mb - 0.00 in0.0 mm 0.00 in0.0 mm
01:12 PM 54.0°F12.2°C 30.2°F-1.0°C 40% 2.9 mph ESE4.7 kmh ESE 2.0 mph3.2 kmh 30.25 in1024.4 mb - 0.00 in0.0 mm 0.00 in0.0 mm
01:07 PM 54.7°F12.6°C 32.0°F0.0°C 42% 2.9 mph E4.7 kmh E 2.9 mph4.7 kmh 30.25 in1024.4 mb - 0.00 in0.0 mm 0.00 in0.0 mm
01:02 PM 54.0°F12.2°C 31.5°F-0.3°C 42% 2.9 mph ENE4.7 kmh ENE 4.0 mph6.4 kmh 30.25 in1024.4 mb - 0.00 in0.0 mm 0.00 in0.0 mm
12:57 PM 54.0°F12.2°C 30.2°F-1.0°C 40% 4.0 mph E6.4 kmh E 4.0 mph6.4 kmh 30.25 in1024.4 mb - 0.00 in0.0 mm 0.00 in0.0 mm
12:52 PM 53.6°F12.0°C 32.2°F0.1°C 44% 4.0 mph NNE6.4 kmh NNE 2.0 mph3.2 kmh 30.25 in1024.4 mb - 0.00 in0.0 mm 0.00 in0.0 mm
12:47 PM 53.4°F11.9°C 31.5°F-0.3°C 43% 2.9 mph NNE4.7 kmh NNE 6.0 mph9.7 kmh 30.25 in1024.4 mb - 0.00 in0.0 mm 0.00 in0.0 mm
12:42 PM 54.1°F12.3°C 31.5°F-0.3°C 42% 4.0 mph NE6.4 kmh NE 0.9 mph1.4 kmh 30.25 in1024.4 mb - 0.00 in0.0 mm 0.00 in0.0 mm
12:37 PM 54.1°F12.3°C 29.7°F-1.3°C 39% 4.0 mph E6.4 kmh E 2.0 mph3.2 kmh 30.25 in1024.4 mb - 0.00 in0.0 mm 0.00 in0.0 mm
12:32 PM 54.0°F12.2°C 32.5°F0.3°C 44% 2.0 mph ENE3.2 kmh ENE 4.9 mph7.9 kmh 30.26 in1024.7 mb - 0.00 in0.0 mm 0.00 in0.0 mm
12:27 PM 53.2°F11.8°C 30.2°F-1.0°C 41% 2.0 mph NE3.2 kmh NE 2.0 mph3.2 kmh 30.26 in1024.7 mb - 0.00 in0.0 mm 0.00 in0.0 mm
12:22 PM 53.1°F11.7°C 30.6°F-0.8°C 42% 2.9 mph NE4.7 kmh NE 2.0 mph3.2 kmh 30.26 in1024.7 mb - 0.00 in0.0 mm 0.00 in0.0 mm
12:17 PM 52.9°F11.6°C 30.4°F-0.9°C 42% 2.9 mph SE4.7 kmh SE 4.0 mph6.4 kmh 30.26 in1024.7 mb - 0.00 in0.0 mm 0.00 in0.0 mm
12:12 PM 52.0°F11.1°C 30.7°F-0.7°C 44% 0.9 mph ENE1.4 kmh ENE 4.9 mph7.9 kmh 30.26 in1024.7 mb - 0.00 in0.0 mm 0.00 in0.0 mm
12:07 PM 51.6°F10.9°C 28.8°F-1.8°C 41% 0.9 mph ENE1.4 kmh ENE -- 30.26 in1024.7 mb - 0.00 in0.0 mm 0.00 in0.0 mm
12:02 PM 52.2°F11.2°C 29.8°F-1.2°C 42% 2.0 mph E3.2 kmh E 2.0 mph3.2 kmh 30.27 in1025.1 mb - 0.00 in0.0 mm 0.00 in0.0 mm
11:57 AM 52.2°F11.2°C 31.5°F-0.3°C 45% 2.9 mph NNE4.7 kmh NNE 0.9 mph1.4 kmh 30.27 in1025.1 mb - 0.00 in0.0 mm 0.00 in0.0 mm
11:52 AM 52.0°F11.1°C 30.2°F-1.0°C 43% 4.0 mph ENE6.4 kmh ENE 0.9 mph1.4 kmh 30.27 in1025.1 mb - 0.00 in0.0 mm 0.00 in0.0 mm
11:47 AM 51.4°F10.8°C 30.7°F-0.7°C 45% 2.9 mph NE4.7 kmh NE 6.9 mph11.1 kmh 30.27 in1025.1 mb - 0.00 in0.0 mm 0.00 in0.0 mm
11:42 AM 50.2°F10.1°C 32.2°F0.1°C 50% 2.0 mph E3.2 kmh E 0.9 mph1.4 kmh 30.27 in1025.1 mb - 0.00 in0.0 mm 0.00 in0.0 mm
11:37 AM 49.3°F9.6°C 28.8°F-1.8°C 45% 0.9 mph SW1.4 kmh SW -- 30.27 in1025.1 mb - 0.00 in0.0 mm 0.00 in0.0 mm
11:32 AM 49.5°F9.7°C 29.5°F-1.4°C 46% 0.9 mph SW1.4 kmh SW 2.0 mph3.2 kmh 30.27 in1025.1 mb - 0.00 in0.0 mm 0.00 in0.0 mm
11:27 AM 49.5°F9.7°C 30.0°F-1.1°C 47% 2.0 mph SW3.2 kmh SW 0.9 mph1.4 kmh 30.28 in1025.4 mb - 0.00 in0.0 mm 0.00 in0.0 mm
11:22 AM 49.6°F9.8°C 29.1°F-1.6°C 45% 0.9 mph W1.4 kmh W 2.0 mph3.2 kmh 30.28 in1025.4 mb - 0.00 in0.0 mm 0.00 in0.0 mm
11:17 AM 49.8°F9.9°C 29.8°F-1.2°C 46% 0.9 mph NW1.4 kmh NW 0.9 mph1.4 kmh 30.28 in1025.4 mb - 0.00 in0.0 mm 0.00 in0.0 mm
11:12 AM 50.5°F10.3°C 30.6°F-0.8°C 46% 0.9 mph NE1.4 kmh NE -- 30.28 in1025.4 mb - 0.00 in0.0 mm 0.00 in0.0 mm
11:07 AM 50.4°F10.2°C 30.4°F-0.9°C 46% 0.9 mph E1.4 kmh E 0.9 mph1.4 kmh 30.28 in1025.4 mb - 0.00 in0.0 mm 0.00 in0.0 mm
11:02 AM 49.6°F9.8°C 30.7°F-0.7°C 48% 0.9 mph E1.4 kmh E 4.0 mph6.4 kmh 30.28 in1025.4 mb - 0.00 in0.0 mm 0.00 in0.0 mm
10:57 AM 49.5°F9.7°C 28.9°F-1.7°C 45% 2.0 mph SW3.2 kmh SW -- 30.28 in1025.4 mb - 0.00 in0.0 mm 0.00 in0.0 mm
10:52 AM 50.0°F10.0°C 28.9°F-1.7°C 44% 2.0 mph SW3.2 kmh SW 2.9 mph4.7 kmh 30.28 in1025.4 mb - 0.00 in0.0 mm 0.00 in0.0 mm
10:47 AM 50.5°F10.3°C 30.6°F-0.8°C 46% 2.0 mph SE3.2 kmh SE 2.0 mph3.2 kmh 30.28 in1025.4 mb - 0.00 in0.0 mm 0.00 in0.0 mm
10:42 AM 49.6°F9.8°C 33.3°F0.7°C 53% 2.0 mph NE3.2 kmh NE 0.9 mph1.4 kmh 30.28 in1025.4 mb - 0.00 in0.0 mm 0.00 in0.0 mm
10:37 AM 49.1°F9.5°C 30.2°F-1.0°C 48% 2.9 mph ENE4.7 kmh ENE 0.9 mph1.4 kmh 30.28 in1025.4 mb - 0.00 in0.0 mm 0.00 in0.0 mm
10:32 AM 49.3°F9.6°C 29.8°F-1.2°C 47% 2.9 mph ENE4.7 kmh ENE 4.9 mph7.9 kmh 30.28 in1025.4 mb - 0.00 in0.0 mm 0.00 in0.0 mm
10:27 AM 49.3°F9.6°C 29.3°F-1.5°C 46% 2.0 mph ENE3.2 kmh ENE 4.0 mph6.4 kmh 30.28 in1025.4 mb - 0.00 in0.0 mm 0.00 in0.0 mm
10:22 AM 48.9°F9.4°C 29.7°F-1.3°C 47% 2.0 mph NE3.2 kmh NE 2.0 mph3.2 kmh 30.28 in1025.4 mb - 0.00 in0.0 mm 0.00 in0.0 mm
10:17 AM 48.9°F9.4°C 29.7°F-1.3°C 47% 2.0 mph NE3.2 kmh NE 0.9 mph1.4 kmh 30.28 in1025.4 mb - 0.00 in0.0 mm 0.00 in0.0 mm
10:12 AM 48.9°F9.4°C 31.1°F-0.5°C 50% 0.9 mph ENE1.4 kmh ENE 2.0 mph3.2 kmh 30.28 in1025.4 mb - 0.00 in0.0 mm 0.00 in0.0 mm
10:07 AM 49.3°F9.6°C 29.8°F-1.2°C 47% 2.0 mph E3.2 kmh E 0.9 mph1.4 kmh 30.28 in1025.4 mb - 0.00 in0.0 mm 0.00 in0.0 mm
10:02 AM 49.5°F9.7°C 31.1°F-0.5°C 49% 2.9 mph E4.7 kmh E 0.9 mph1.4 kmh 30.28 in1025.4 mb - 0.00 in0.0 mm 0.00 in0.0 mm
09:57 AM 49.1°F9.5°C 31.8°F-0.1°C 51% 2.0 mph NNE3.2 kmh NNE 2.0 mph3.2 kmh 30.28 in1025.4 mb - 0.00 in0.0 mm 0.00 in0.0 mm
09:52 AM 48.9°F9.4°C 31.1°F-0.5°C 50% 2.0 mph ESE3.2 kmh ESE 2.9 mph4.7 kmh 30.28 in1025.4 mb - 0.00 in0.0 mm 0.00 in0.0 mm
09:47 AM 48.4°F9.1°C 29.7°F-1.3°C 48% 2.0 mph ESE3.2 kmh ESE 2.9 mph4.7 kmh 30.28 in1025.4 mb - 0.00 in0.0 mm 0.00 in0.0 mm
09:42 AM 48.4°F9.1°C 31.1°F-0.5°C 51% 2.0 mph NE3.2 kmh NE 4.0 mph6.4 kmh 30.28 in1025.4 mb - 0.00 in0.0 mm 0.00 in0.0 mm
09:37 AM 48.6°F9.2°C 32.2°F0.1°C 53% 2.9 mph ESE4.7 kmh ESE 0.9 mph1.4 kmh 30.28 in1025.4 mb - 0.00 in0.0 mm 0.00 in0.0 mm
09:32 AM 48.7°F9.3°C 33.3°F0.7°C 55% 2.9 mph NE4.7 kmh NE 2.9 mph4.7 kmh 30.28 in1025.4 mb - 0.00 in0.0 mm 0.00 in0.0 mm
09:27 AM 48.4°F9.1°C 33.4°F0.8°C 56% 2.9 mph E4.7 kmh E 2.9 mph4.7 kmh 30.28 in1025.4 mb - 0.00 in0.0 mm 0.00 in0.0 mm
09:22 AM 47.8°F8.8°C 32.9°F0.5°C 56% 2.0 mph ENE3.2 kmh ENE 4.0 mph6.4 kmh 30.28 in1025.4 mb - 0.00 in0.0 mm 0.00 in0.0 mm
09:17 AM 47.8°F8.8°C 31.5°F-0.3°C 53% 2.9 mph E4.7 kmh E -- 30.28 in1025.4 mb - 0.00 in0.0 mm 0.00 in0.0 mm
09:12 AM 48.2°F9.0°C 31.8°F-0.1°C 53% 2.9 mph E4.7 kmh E 2.9 mph4.7 kmh 30.28 in1025.4 mb - 0.00 in0.0 mm 0.00 in0.0 mm
09:07 AM 48.7°F9.3°C 32.9°F0.5°C 54% 2.0 mph ENE3.2 kmh ENE 4.0 mph6.4 kmh 30.28 in1025.4 mb - 0.00 in0.0 mm 0.00 in0.0 mm
09:02 AM 48.6°F9.2°C 33.6°F0.9°C 56% 2.0 mph E3.2 kmh E 2.9 mph4.7 kmh 30.28 in1025.4 mb - 0.00 in0.0 mm 0.00 in0.0 mm
08:57 AM 49.3°F9.6°C 33.3°F0.7°C 54% 2.9 mph E4.7 kmh E 2.9 mph4.7 kmh 30.28 in1025.4 mb - 0.00 in0.0 mm 0.00 in0.0 mm
08:52 AM 48.9°F9.4°C 34.9°F1.6°C 58% 2.0 mph NE3.2 kmh NE 2.9 mph4.7 kmh 30.28 in1025.4 mb - 0.00 in0.0 mm 0.00 in0.0 mm
08:47 AM 48.0°F8.9°C 33.4°F0.8°C 57% 0.9 mph NE1.4 kmh NE 4.9 mph7.9 kmh 30.28 in1025.4 mb - 0.00 in0.0 mm 0.00 in0.0 mm
08:42 AM 47.7°F8.7°C 34.9°F1.6°C 61% 2.0 mph E3.2 kmh E 0.9 mph1.4 kmh 30.28 in1025.4 mb - 0.00 in0.0 mm 0.00 in0.0 mm
08:37 AM 47.1°F8.4°C 33.4°F0.8°C 59% 0.9 mph SE1.4 kmh SE 2.9 mph4.7 kmh 30.29 in1025.7 mb - 0.00 in0.0 mm 0.00 in0.0 mm
08:32 AM 47.1°F8.4°C 33.4°F0.8°C 59% 2.0 mph E3.2 kmh E -- 30.28 in1025.4 mb - 0.00 in0.0 mm 0.00 in0.0 mm
08:27 AM 46.9°F8.3°C 34.5°F1.4°C 62% 4.0 mph E6.4 kmh E 2.9 mph4.7 kmh 30.29 in1025.7 mb - 0.00 in0.0 mm 0.00 in0.0 mm
08:22 AM 46.4°F8.0°C 34.5°F1.4°C 63% 2.0 mph E3.2 kmh E 4.9 mph7.9 kmh 30.28 in1025.4 mb - 0.00 in0.0 mm 0.00 in0.0 mm
08:17 AM 46.6°F8.1°C 33.8°F1.0°C 61% 0.9 mph WNW1.4 kmh WNW 2.9 mph4.7 kmh 30.28 in1025.4 mb - 0.00 in0.0 mm 0.00 in0.0 mm
08:12 AM 46.6°F8.1°C 34.7°F1.5°C 63% 2.0 mph NE3.2 kmh NE -- 30.28 in1025.4 mb - 0.00 in0.0 mm 0.00 in0.0 mm
08:07 AM 46.0°F7.8°C 34.2°F1.2°C 63% 0.9 mph E1.4 kmh E 2.0 mph3.2 kmh 30.28 in1025.4 mb - 0.00 in0.0 mm 0.00 in0.0 mm
08:02 AM 45.7°F7.6°C 35.1°F1.7°C 66% 0.9 mph ENE1.4 kmh ENE 0.9 mph1.4 kmh 30.28 in1025.4 mb - 0.00 in0.0 mm 0.00 in0.0 mm
07:57 AM 45.0°F7.2°C 34.3°F1.3°C 66% 2.0 mph ENE3.2 kmh ENE 0.9 mph1.4 kmh 30.28 in1025.4 mb - 0.00 in0.0 mm 0.00 in0.0 mm
07:52 AM 44.6°F7.0°C 34.0°F1.1°C 66% 2.0 mph W3.2 kmh W -- 30.28 in1025.4 mb - 0.00 in0.0 mm 0.00 in0.0 mm
07:47 AM 44.8°F7.1°C 33.8°F1.0°C 65% 0.9 mph W1.4 kmh W 2.0 mph3.2 kmh 30.28 in1025.4 mb - 0.00 in0.0 mm 0.00 in0.0 mm
07:42 AM 44.6°F7.0°C 34.7°F1.5°C 68% 0.9 mph ENE1.4 kmh ENE 0.9 mph1.4 kmh 30.28 in1025.4 mb - 0.00 in0.0 mm 0.00 in0.0 mm
07:37 AM 43.5°F6.4°C 33.3°F0.7°C 67% Calm Calm -- 30.28 in1025.4 mb - 0.00 in0.0 mm 0.00 in0.0 mm
07:32 AM 43.3°F6.3°C 33.4°F0.8°C 68% 0.9 mph W1.4 kmh W -- 30.28 in1025.4 mb - 0.00 in0.0 mm 0.00 in0.0 mm
07:27 AM 43.0°F6.1°C 33.8°F1.0°C 70% Calm Calm 0.9 mph1.4 kmh 30.28 in1025.4 mb - 0.00 in0.0 mm 0.00 in0.0 mm
07:22 AM 42.6°F5.9°C 33.8°F1.0°C 71% Calm Calm 2.0 mph3.2 kmh 30.28 in1025.4 mb - 0.00 in0.0 mm 0.00 in0.0 mm
07:17 AM 41.5°F5.3°C 33.8°F1.0°C 74% Calm Calm 0.9 mph1.4 kmh 30.28 in1025.4 mb - 0.00 in0.0 mm 0.00 in0.0 mm
07:12 AM 40.6°F4.8°C 33.3°F0.7°C 75% Calm Calm -- 30.28 in1025.4 mb - 0.00 in0.0 mm 0.00 in0.0 mm
07:07 AM 39.9°F4.4°C 32.7°F0.4°C 75% Calm Calm -- 30.28 in1025.4 mb - 0.00 in0.0 mm 0.00 in0.0 mm
07:02 AM 39.0°F3.9°C 32.7°F0.4°C 78% Calm Calm -- 30.28 in1025.4 mb - 0.00 in0.0 mm 0.00 in0.0 mm
06:57 AM 38.3°F3.5°C 32.4°F0.2°C 79% Calm Calm -- 30.28 in1025.4 mb - 0.00 in0.0 mm 0.00 in0.0 mm
06:52 AM 37.6°F3.1°C 32.0°F0.0°C 80% Calm Calm 0.9 mph1.4 kmh 30.28 in1025.4 mb - 0.00 in0.0 mm 0.00 in0.0 mm
06:47 AM 36.9°F2.7°C 31.6°F-0.2°C 81% Calm Calm -- 30.28 in1025.4 mb - 0.00 in0.0 mm 0.00 in0.0 mm
06:42 AM 36.5°F2.5°C 31.5°F-0.3°C 82% Calm Calm -- 30.28 in1025.4 mb - 0.00 in0.0 mm 0.00 in0.0 mm
06:37 AM 36.1°F2.3°C 31.1°F-0.5°C 82% Calm Calm -- 30.27 in1025.1 mb - 0.00 in0.0 mm 0.00 in0.0 mm
06:32 AM 36.0°F2.2°C 30.9°F-0.6°C 82% 0.9 mph NW1.4 kmh NW -- 30.27 in1025.1 mb - 0.00 in0.0 mm 0.00 in0.0 mm
06:27 AM 35.8°F2.1°C 30.7°F-0.7°C 82% 0.9 mph NW1.4 kmh NW -- 30.27 in1025.1 mb - 0.00 in0.0 mm 0.00 in0.0 mm
06:22 AM 35.2°F1.8°C 30.6°F-0.8°C 83% 0.9 mph NNW1.4 kmh NNW 0.9 mph1.4 kmh 30.27 in1025.1 mb - 0.00 in0.0 mm 0.00 in0.0 mm
06:17 AM 34.9°F1.6°C 30.2°F-1.0°C 83% 0.9 mph NE1.4 kmh NE 0.9 mph1.4 kmh 30.27 in1025.1 mb - 0.00 in0.0 mm 0.00 in0.0 mm
06:12 AM 34.5°F1.4°C 30.2°F-1.0°C 84% Calm Calm 2.0 mph3.2 kmh 30.27 in1025.1 mb - 0.00 in0.0 mm 0.00 in0.0 mm
06:07 AM 34.3°F1.3°C 30.0°F-1.1°C 84% 0.9 mph WSW1.4 kmh WSW -- 30.27 in1025.1 mb - 0.00 in0.0 mm 0.00 in0.0 mm
06:02 AM 34.3°F1.3°C 30.0°F-1.1°C 84% 0.9 mph WSW1.4 kmh WSW -- 30.26 in1024.7 mb - 0.00 in0.0 mm 0.00 in0.0 mm
05:57 AM 34.3°F1.3°C 29.7°F-1.3°C 83% 0.9 mph WSW1.4 kmh WSW 2.0 mph3.2 kmh 30.26 in1024.7 mb - 0.00 in0.0 mm 0.00 in0.0 mm
05:52 AM 34.3°F1.3°C 29.7°F-1.3°C 83% 2.0 mph W3.2 kmh W -- 30.26 in1024.7 mb - 0.00 in0.0 mm 0.00 in0.0 mm
05:47 AM 34.3°F1.3°C 29.7°F-1.3°C 83% 2.0 mph W3.2 kmh W 0.9 mph1.4 kmh 30.26 in1024.7 mb - 0.00 in0.0 mm 0.00 in0.0 mm
05:42 AM 34.5°F1.4°C 29.8°F-1.2°C 83% 2.9 mph W4.7 kmh W 0.9 mph1.4 kmh 30.26 in1024.7 mb - 0.00 in0.0 mm 0.00 in0.0 mm
05:37 AM 34.5°F1.4°C 29.8°F-1.2°C 83% 2.9 mph W4.7 kmh W 2.0 mph3.2 kmh 30.25 in1024.4 mb - 0.00 in0.0 mm 0.00 in0.0 mm
05:32 AM 34.7°F1.5°C 30.0°F-1.1°C 83% 2.9 mph W4.7 kmh W 2.9 mph4.7 kmh 30.26 in1024.7 mb - 0.00 in0.0 mm 0.00 in0.0 mm
05:27 AM 34.7°F1.5°C 30.0°F-1.1°C 83% 4.0 mph W6.4 kmh W 2.9 mph4.7 kmh 30.26 in1024.7 mb - 0.00 in0.0 mm 0.00 in0.0 mm
05:22 AM 34.7°F1.5°C 30.0°F-1.1°C 83% 4.0 mph W6.4 kmh W 2.0 mph3.2 kmh 30.25 in1024.4 mb - 0.00 in0.0 mm 0.00 in0.0 mm
05:17 AM 34.9°F1.6°C 30.2°F-1.0°C 83% 2.9 mph W4.7 kmh W 2.9 mph4.7 kmh 30.25 in1024.4 mb - 0.00 in0.0 mm 0.00 in0.0 mm
05:12 AM 34.9°F1.6°C 30.2°F-1.0°C 83% 2.9 mph W4.7 kmh W 2.9 mph4.7 kmh 30.25 in1024.4 mb - 0.00 in0.0 mm 0.00 in0.0 mm
05:07 AM 34.9°F1.6°C 30.2°F-1.0°C 83% 2.9 mph W4.7 kmh W 2.9 mph4.7 kmh 30.25 in1024.4 mb - 0.00 in0.0 mm 0.00 in0.0 mm
05:02 AM 35.1°F1.7°C 30.4°F-0.9°C 83% 2.9 mph W4.7 kmh W 6.0 mph9.7 kmh 30.25 in1024.4 mb - 0.00 in0.0 mm 0.00 in0.0 mm
04:57 AM 35.1°F1.7°C 30.4°F-0.9°C 83% 2.9 mph W4.7 kmh W 2.9 mph4.7 kmh 30.25 in1024.4 mb - 0.00 in0.0 mm 0.00 in0.0 mm
04:52 AM 35.2°F1.8°C 30.6°F-0.8°C 83% 2.9 mph W4.7 kmh W 2.9 mph4.7 kmh 30.25 in1024.4 mb - 0.00 in0.0 mm 0.00 in0.0 mm
04:47 AM 35.2°F1.8°C 30.4°F-0.9°C 82% 2.9 mph WNW4.7 kmh WNW 6.9 mph11.1 kmh 30.25 in1024.4 mb - 0.00 in0.0 mm 0.00 in0.0 mm
04:42 AM 35.4°F1.9°C 30.6°F-0.8°C 82% 2.9 mph W4.7 kmh W 2.0 mph3.2 kmh 30.25 in1024.4 mb - 0.00 in0.0 mm 0.00 in0.0 mm
04:37 AM 35.4°F1.9°C 30.6°F-0.8°C 82% 2.0 mph W3.2 kmh W 2.9 mph4.7 kmh 30.24 in1024.0 mb - 0.00 in0.0 mm 0.00 in0.0 mm
04:32 AM 35.4°F1.9°C 30.6°F-0.8°C 82% 2.0 mph W3.2 kmh W 0.9 mph1.4 kmh 30.24 in1024.0 mb - 0.00 in0.0 mm 0.00 in0.0 mm
04:27 AM 35.6°F2.0°C 30.9°F-0.6°C 83% 2.0 mph WSW3.2 kmh WSW 2.0 mph3.2 kmh 30.24 in1024.0 mb - 0.00 in0.0 mm 0.00 in0.0 mm
04:22 AM 35.6°F2.0°C 30.9°F-0.6°C 83% 0.9 mph W1.4 kmh W 0.9 mph1.4 kmh 30.24 in1024.0 mb - 0.00 in0.0 mm 0.00 in0.0 mm
04:17 AM 35.6°F2.0°C 30.9°F-0.6°C 83% Calm Calm -- 30.24 in1024.0 mb - 0.00 in0.0 mm 0.00 in0.0 mm
04:12 AM 35.8°F2.1°C 30.7°F-0.7°C 82% Calm Calm -- 30.24 in1024.0 mb - 0.00 in0.0 mm 0.00 in0.0 mm
04:07 AM 36.0°F2.2°C 30.9°F-0.6°C 82% 0.9 mph W1.4 kmh W -- 30.24 in1024.0 mb - 0.00 in0.0 mm 0.00 in0.0 mm
04:02 AM 36.0°F2.2°C 30.9°F-0.6°C 82% 2.0 mph W3.2 kmh W -- 30.24 in1024.0 mb - 0.00 in0.0 mm 0.00 in0.0 mm
03:57 AM 36.1°F2.3°C 31.1°F-0.5°C 82% 2.0 mph W3.2 kmh W 2.0 mph3.2 kmh 30.24 in1024.0 mb - 0.00 in0.0 mm 0.00 in0.0 mm
03:52 AM 36.1°F2.3°C 31.5°F-0.3°C 83% 2.0 mph W3.2 kmh W 2.0 mph3.2 kmh 30.24 in1024.0 mb - 0.00 in0.0 mm 0.00 in0.0 mm
03:47 AM 36.1°F2.3°C 31.5°F-0.3°C 83% 2.0 mph W3.2 kmh W 0.9 mph1.4 kmh 30.24 in1024.0 mb - 0.00 in0.0 mm 0.00 in0.0 mm
03:42 AM 35.8°F2.1°C 31.5°F-0.3°C 84% 2.0 mph W3.2 kmh W 2.0 mph3.2 kmh 30.24 in1024.0 mb - 0.00 in0.0 mm 0.00 in0.0 mm
03:37 AM 35.8°F2.1°C 31.5°F-0.3°C 84% 0.9 mph W1.4 kmh W 0.9 mph1.4 kmh 30.24 in1024.0 mb - 0.00 in0.0 mm 0.00 in0.0 mm
03:33 AM 36.0°F2.2°C 31.6°F-0.2°C 84% 0.9 mph W1.4 kmh W 0.9 mph1.4 kmh 30.24 in1024.0 mb - 0.00 in0.0 mm 0.00 in0.0 mm
03:27 AM 36.0°F2.2°C 31.3°F-0.4°C 83% Calm Calm 0.9 mph1.4 kmh 30.24 in1024.0 mb - 0.00 in0.0 mm 0.00 in0.0 mm
03:22 AM 36.1°F2.3°C 31.5°F-0.3°C 83% Calm Calm -- 30.24 in1024.0 mb - 0.00 in0.0 mm 0.00 in0.0 mm
03:17 AM 36.3°F2.4°C 31.6°F-0.2°C 83% Calm Calm -- 30.24 in1024.0 mb - 0.00 in0.0 mm 0.00 in0.0 mm
03:12 AM 36.3°F2.4°C 31.6°F-0.2°C 83% Calm Calm -- 30.24 in1024.0 mb - 0.00 in0.0 mm 0.00 in0.0 mm
03:07 AM 36.7°F2.6°C 31.6°F-0.2°C 82% Calm Calm -- 30.24 in1024.0 mb - 0.00 in0.0 mm 0.00 in0.0 mm
03:02 AM 36.7°F2.6°C 31.6°F-0.2°C 82% Calm Calm -- 30.24 in1024.0 mb - 0.00 in0.0 mm 0.00 in0.0 mm
02:57 AM 36.9°F2.7°C 31.8°F-0.1°C 82% Calm Calm -- 30.24 in1024.0 mb - 0.00 in0.0 mm 0.00 in0.0 mm
02:52 AM 37.0°F2.8°C 32.0°F0.0°C 82% Calm Calm -- 30.24 in1024.0 mb - 0.00 in0.0 mm 0.00 in0.0 mm
02:47 AM 37.2°F2.9°C 32.2°F0.1°C 82% Calm Calm -- 30.24 in1024.0 mb - 0.00 in0.0 mm 0.00 in0.0 mm
02:42 AM 37.4°F3.0°C 32.2°F0.1°C 81% Calm Calm -- 30.24 in1024.0 mb - 0.00 in0.0 mm 0.00 in0.0 mm
02:37 AM 37.8°F3.2°C 32.5°F0.3°C 81% Calm Calm -- 30.24 in1024.0 mb - 0.00 in0.0 mm 0.00 in0.0 mm
02:32 AM 37.9°F3.3°C 32.7°F0.4°C 81% Calm Calm -- 30.24 in1024.0 mb - 0.00 in0.0 mm 0.00 in0.0 mm
02:27 AM 37.9°F3.3°C 32.7°F0.4°C 81% Calm Calm 0.9 mph1.4 kmh 30.24 in1024.0 mb - 0.00 in0.0 mm 0.00 in0.0 mm
02:22 AM 37.9°F3.3°C 32.7°F0.4°C 81% Calm Calm -- 30.23 in1023.7 mb - 0.00 in0.0 mm 0.00 in0.0 mm
02:17 AM 37.8°F3.2°C 32.5°F0.3°C 81% 0.9 mph W1.4 kmh W -- 30.23 in1023.7 mb - 0.00 in0.0 mm 0.00 in0.0 mm
02:12 AM 37.9°F3.3°C 32.7°F0.4°C 81% 0.9 mph W1.4 kmh W -- 30.23 in1023.7 mb - 0.00 in0.0 mm 0.00 in0.0 mm
02:07 AM 38.1°F3.4°C 32.5°F0.3°C 80% 0.9 mph W1.4 kmh W -- 30.23 in1023.7 mb - 0.00 in0.0 mm 0.00 in0.0 mm
02:02 AM 38.5°F3.6°C 32.9°F0.5°C 80% 2.0 mph W3.2 kmh W 0.9 mph1.4 kmh 30.24 in1024.0 mb - 0.00 in0.0 mm 0.00 in0.0 mm
01:57 AM 38.8°F3.8°C 32.9°F0.5°C 79% 2.0 mph W3.2 kmh W 0.9 mph1.4 kmh 30.24 in1024.0 mb - 0.00 in0.0 mm 0.00 in0.0 mm
01:52 AM 39.0°F3.9°C 33.1°F0.6°C 79% 2.0 mph W3.2 kmh W 2.0 mph3.2 kmh 30.23 in1023.7 mb - 0.00 in0.0 mm 0.00 in0.0 mm
01:47 AM 39.4°F4.1°C 33.1°F0.6°C 78% 2.0 mph WNW3.2 kmh WNW 2.0 mph3.2 kmh 30.23 in1023.7 mb - 0.00 in0.0 mm 0.00 in0.0 mm
01:42 AM 39.6°F4.2°C 32.9°F0.5°C 77% 2.0 mph W3.2 kmh W 2.0 mph3.2 kmh 30.24 in1024.0 mb - 0.00 in0.0 mm 0.00 in0.0 mm
01:37 AM 39.7°F4.3°C 33.1°F0.6°C 77% 0.9 mph W1.4 kmh W 2.9 mph4.7 kmh 30.23 in1023.7 mb - 0.00 in0.0 mm 0.00 in0.0 mm
01:32 AM 40.3°F4.6°C 33.3°F0.7°C 76% 0.9 mph W1.4 kmh W 0.9 mph1.4 kmh 30.24 in1024.0 mb - 0.00 in0.0 mm 0.00 in0.0 mm
01:27 AM 40.8°F4.9°C 33.3°F0.7°C 74% 0.9 mph W1.4 kmh W -- 30.24 in1024.0 mb - 0.00 in0.0 mm 0.00 in0.0 mm
01:22 AM 41.4°F5.2°C 33.4°F0.8°C 73% 0.9 mph W1.4 kmh W 0.9 mph1.4 kmh 30.24 in1024.0 mb - 0.00 in0.0 mm 0.00 in0.0 mm
01:17 AM 41.5°F5.3°C 33.3°F0.7°C 72% 0.9 mph WNW1.4 kmh WNW 0.9 mph1.4 kmh 30.24 in1024.0 mb - 0.00 in0.0 mm 0.00 in0.0 mm
01:12 AM 41.5°F5.3°C 33.3°F0.7°C 72% 0.9 mph WNW1.4 kmh WNW -- 30.24 in1024.0 mb - 0.00 in0.0 mm 0.00 in0.0 mm
01:07 AM 41.5°F5.3°C 33.3°F0.7°C 72% 0.9 mph N1.4 kmh N 2.0 mph3.2 kmh 30.24 in1024.0 mb - 0.00 in0.0 mm 0.00 in0.0 mm
01:02 AM 41.4°F5.2°C 33.4°F0.8°C 73% 2.0 mph NW3.2 kmh NW -- 30.24 in1024.0 mb - 0.00 in0.0 mm 0.00 in0.0 mm
12:57 AM 41.2°F5.1°C 33.8°F1.0°C 75% 2.0 mph W3.2 kmh W 6.0 mph9.7 kmh 30.24 in1024.0 mb - 0.00 in0.0 mm 0.00 in0.0 mm
12:52 AM 41.4°F5.2°C 34.0°F1.1°C 75% 2.9 mph WNW4.7 kmh WNW 2.9 mph4.7 kmh 30.24 in1024.0 mb - 0.00 in0.0 mm 0.00 in0.0 mm
12:47 AM 41.7°F5.4°C 34.0°F1.1°C 74% 2.0 mph WSW3.2 kmh WSW 4.0 mph6.4 kmh 30.24 in1024.0 mb - 0.00 in0.0 mm 0.00 in0.0 mm
12:42 AM 41.9°F5.5°C 34.2°F1.2°C 74% 2.0 mph WSW3.2 kmh WSW 2.9 mph4.7 kmh 30.24 in1024.0 mb - 0.00 in0.0 mm 0.00 in0.0 mm
12:37 AM 42.1°F5.6°C 34.3°F1.3°C 74% 2.9 mph W4.7 kmh W 0.9 mph1.4 kmh 30.24 in1024.0 mb - 0.00 in0.0 mm 0.00 in0.0 mm
12:32 AM 41.9°F5.5°C 34.2°F1.2°C 74% 2.0 mph W3.2 kmh W 2.9 mph4.7 kmh 30.25 in1024.4 mb - 0.00 in0.0 mm 0.00 in0.0 mm
12:27 AM 41.9°F5.5°C 34.5°F1.4°C 75% 2.0 mph W3.2 kmh W 2.9 mph4.7 kmh 30.25 in1024.4 mb - 0.00 in0.0 mm 0.00 in0.0 mm
12:22 AM 41.4°F5.2°C 34.3°F1.3°C 76% 2.9 mph WSW4.7 kmh WSW 2.0 mph3.2 kmh 30.25 in1024.4 mb - 0.00 in0.0 mm 0.00 in0.0 mm
12:17 AM 41.2°F5.1°C 34.9°F1.6°C 78% 2.9 mph W4.7 kmh W 2.0 mph3.2 kmh 30.25 in1024.4 mb - 0.00 in0.0 mm 0.00 in0.0 mm
12:12 AM 41.2°F5.1°C 34.9°F1.6°C 78% 2.0 mph W3.2 kmh W 2.9 mph4.7 kmh 30.25 in1024.4 mb - 0.00 in0.0 mm 0.00 in0.0 mm
12:07 AM 41.2°F5.1°C 34.9°F1.6°C 78% 2.0 mph W3.2 kmh W 2.9 mph4.7 kmh 30.25 in1024.4 mb - 0.00 in0.0 mm 0.00 in0.0 mm
12:02 AM 41.4°F5.2°C 35.1°F1.7°C 78% 2.0 mph WSW3.2 kmh WSW 4.9 mph7.9 kmh 30.25 in1024.4 mb - 0.00 in0.0 mm 0.00 in0.0 mm